createdAt,value
2017-12-06T00:00:00.732Z,22.50
2017-12-06T00:01:00.714Z,22.40
2017-12-06T00:02:00.693Z,21.50
2017-12-06T00:03:00.676Z,22.30
2017-12-06T00:04:00.655Z,22.40
2017-12-06T00:05:00.629Z,23.30
2017-12-06T00:06:00.615Z,22.80
2017-12-06T00:07:00.598Z,22.20
2017-12-06T00:08:00.568Z,22.60
2017-12-06T00:09:00.549Z,21.70
2017-12-06T00:10:00.526Z,21.90
2017-12-06T00:11:00.510Z,20.60
2017-12-06T00:12:00.484Z,21.30
2017-12-06T00:13:00.467Z,20.70
2017-12-06T00:14:00.443Z,21.50
2017-12-06T00:15:00.437Z,21.80
2017-12-06T00:16:00.401Z,21.10
2017-12-06T00:17:00.383Z,19.90
2017-12-06T00:18:00.371Z,21.50
2017-12-06T00:19:00.344Z,20.80
2017-12-06T00:20:00.322Z,20.30
2017-12-06T00:21:00.302Z,20.60
2017-12-06T00:22:00.282Z,21.50
2017-12-06T00:23:00.264Z,21.70
2017-12-06T00:24:00.240Z,21.10
2017-12-06T00:25:00.221Z,21.80
2017-12-06T00:26:00.200Z,22.60
2017-12-06T00:27:00.185Z,21.10
2017-12-06T00:28:00.162Z,23.10
2017-12-06T00:29:00.137Z,19.20
2017-12-06T00:30:00.120Z,22.00
2017-12-06T00:31:00.102Z,20.70
2017-12-06T00:32:00.077Z,22.90
2017-12-06T00:33:00.057Z,19.80
2017-12-06T00:34:00.046Z,21.60
2017-12-06T00:35:00.022Z,20.70
2017-12-06T00:35:59.993Z,21.60
2017-12-06T00:36:59.979Z,21.00
2017-12-06T00:37:59.955Z,19.50
2017-12-06T00:38:59.939Z,19.90
2017-12-06T00:39:59.913Z,20.10
2017-12-06T00:40:59.896Z,19.80
2017-12-06T00:41:59.878Z,20.80
2017-12-06T00:42:59.852Z,20.50
2017-12-06T00:43:59.855Z,19.70
2017-12-06T00:44:59.812Z,20.90
2017-12-06T00:45:59.794Z,20.10
2017-12-06T00:46:59.772Z,19.90
2017-12-06T00:47:59.748Z,19.50
2017-12-06T00:48:59.731Z,20.00
2017-12-06T00:49:59.709Z,21.30
2017-12-06T00:50:59.692Z,20.60
2017-12-06T00:51:59.669Z,20.80
2017-12-06T00:52:59.645Z,20.50
2017-12-06T00:53:59.629Z,21.20
2017-12-06T00:54:59.607Z,20.10
2017-12-06T00:55:59.590Z,20.40
2017-12-06T00:56:59.564Z,19.80
2017-12-06T00:57:59.549Z,20.40
2017-12-06T00:58:59.527Z,19.50
2017-12-06T00:59:59.505Z,20.30
2017-12-06T01:00:59.487Z,19.40
2017-12-06T01:01:59.461Z,21.20
2017-12-06T01:02:59.442Z,19.10
2017-12-06T01:03:59.427Z,19.70
2017-12-06T01:04:59.402Z,19.90
2017-12-06T01:05:59.386Z,19.90
2017-12-06T01:06:59.362Z,20.40
2017-12-06T01:07:59.339Z,21.30
2017-12-06T01:08:59.320Z,20.80
2017-12-06T01:09:59.301Z,21.60
2017-12-06T01:10:59.278Z,20.70
2017-12-06T01:11:59.263Z,21.80
2017-12-06T01:12:59.244Z,21.60
2017-12-06T01:13:59.218Z,21.10
2017-12-06T01:14:59.202Z,21.50
2017-12-06T01:15:59.179Z,22.90
2017-12-06T01:16:59.163Z,22.20
2017-12-06T01:17:59.140Z,22.30
2017-12-06T01:18:59.122Z,21.10
2017-12-06T01:19:59.097Z,22.50
2017-12-06T01:20:59.079Z,22.50
2017-12-06T01:21:59.059Z,20.90
2017-12-06T01:22:59.035Z,21.60
2017-12-06T01:23:59.013Z,21.20
2017-12-06T01:24:58.997Z,23.30
2017-12-06T01:25:58.974Z,22.40
2017-12-06T01:26:58.956Z,21.70
2017-12-06T01:27:58.931Z,21.70
2017-12-06T01:28:58.914Z,22.10
2017-12-06T01:29:58.893Z,22.50
2017-12-06T01:30:58.871Z,21.60
2017-12-06T01:31:58.852Z,21.60
2017-12-06T01:32:58.829Z,23.80
2017-12-06T01:33:58.819Z,22.30
2017-12-06T01:34:58.790Z,22.60
2017-12-06T01:35:58.771Z,22.60
2017-12-06T01:36:58.755Z,23.00
2017-12-06T01:37:58.732Z,22.10
2017-12-06T01:38:58.711Z,22.30
2017-12-06T01:39:58.685Z,22.80
2017-12-06T01:40:58.666Z,21.80
2017-12-06T01:41:58.648Z,21.70
2017-12-06T01:42:58.631Z,21.40
2017-12-06T01:43:58.610Z,21.20
2017-12-06T01:44:58.583Z,20.80
2017-12-06T01:45:58.562Z,22.00
2017-12-06T01:46:58.542Z,22.60
2017-12-06T01:47:58.523Z,21.80
2017-12-06T01:48:58.502Z,21.40
2017-12-06T01:49:58.483Z,20.90
2017-12-06T01:50:58.467Z,22.30
2017-12-06T01:51:58.440Z,22.00
2017-12-06T01:52:58.425Z,22.50
2017-12-06T01:53:58.400Z,20.70
2017-12-06T01:54:58.384Z,21.90
2017-12-06T01:55:58.362Z,22.70
2017-12-06T01:56:58.338Z,21.80
2017-12-06T01:57:58.327Z,22.00
2017-12-06T01:58:58.302Z,22.10
2017-12-06T01:59:58.284Z,21.00
2017-12-06T02:00:58.259Z,21.10
2017-12-06T02:01:58.240Z,21.70
2017-12-06T02:02:58.218Z,21.10
2017-12-06T02:03:58.194Z,20.70
2017-12-06T02:04:58.186Z,22.60
2017-12-06T02:05:58.161Z,20.30
2017-12-06T02:06:58.135Z,21.50
2017-12-06T02:07:58.113Z,20.20
2017-12-06T02:08:58.093Z,20.90
2017-12-06T02:09:58.078Z,21.60
2017-12-06T02:10:58.052Z,21.20
2017-12-06T02:11:58.033Z,22.60
2017-12-06T02:12:58.012Z,20.60
2017-12-06T02:13:57.992Z,22.10
2017-12-06T02:14:57.973Z,21.80
2017-12-06T02:15:57.950Z,21.60
2017-12-06T02:16:57.937Z,22.60
2017-12-06T02:17:57.910Z,22.70
2017-12-06T02:18:57.893Z,23.10
2017-12-06T02:19:57.870Z,24.00
2017-12-06T02:20:57.846Z,22.90
2017-12-06T02:21:57.831Z,23.70
2017-12-06T02:22:57.807Z,25.10
2017-12-06T02:23:57.788Z,25.90
2017-12-06T02:24:57.766Z,23.80
2017-12-06T02:25:57.745Z,23.80
2017-12-06T02:26:57.731Z,24.20
2017-12-06T02:27:57.715Z,24.70
2017-12-06T02:28:57.684Z,24.60
2017-12-06T02:29:57.663Z,23.50
2017-12-06T02:30:57.648Z,25.50
2017-12-06T02:31:57.622Z,25.10
2017-12-06T02:32:57.610Z,25.50
2017-12-06T02:33:57.582Z,25.70
2017-12-06T02:34:57.561Z,26.50
2017-12-06T02:35:57.547Z,25.80
2017-12-06T02:36:57.555Z,25.30
2017-12-06T02:37:57.505Z,26.30
2017-12-06T02:38:57.482Z,27.00
2017-12-06T02:39:57.464Z,27.30
2017-12-06T02:40:57.442Z,27.10
2017-12-06T02:41:57.422Z,27.10
2017-12-06T02:42:57.401Z,28.60
2017-12-06T02:43:57.384Z,27.00
2017-12-06T02:44:57.365Z,26.40
2017-12-06T02:45:57.349Z,27.40
2017-12-06T02:46:57.321Z,27.10
2017-12-06T02:47:57.300Z,29.50
2017-12-06T02:48:57.281Z,28.40
2017-12-06T02:49:57.314Z,28.90
2017-12-06T02:50:57.237Z,30.40
2017-12-06T02:51:57.221Z,29.30
2017-12-06T02:52:57.200Z,29.90
2017-12-06T02:53:57.178Z,30.90
2017-12-06T02:54:57.157Z,30.70
2017-12-06T02:55:57.139Z,28.40
2017-12-06T02:56:57.118Z,30.30
2017-12-06T02:57:57.094Z,30.70
2017-12-06T02:58:57.074Z,30.00
2017-12-06T02:59:57.054Z,30.20
2017-12-06T03:00:57.036Z,30.50
2017-12-06T03:01:57.011Z,30.60
2017-12-06T03:02:56.991Z,31.30
2017-12-06T03:03:56.972Z,30.80
2017-12-06T03:04:56.957Z,30.30
2017-12-06T03:05:56.931Z,31.40
2017-12-06T03:06:56.912Z,31.70
2017-12-06T03:07:56.896Z,32.00
2017-12-06T03:08:56.873Z,29.30
2017-12-06T03:09:56.854Z,30.10
2017-12-06T03:10:56.840Z,31.30
2017-12-06T03:11:56.809Z,31.40
2017-12-06T03:12:56.790Z,32.30
2017-12-06T03:13:56.771Z,31.40
2017-12-06T03:14:56.752Z,31.50
2017-12-06T03:15:56.734Z,30.10
2017-12-06T03:16:56.713Z,32.00
2017-12-06T03:17:56.687Z,31.80
2017-12-06T03:18:56.670Z,30.60
2017-12-06T03:19:56.648Z,31.70
2017-12-06T03:20:56.626Z,31.50
2017-12-06T03:21:56.627Z,30.70
2017-12-06T03:22:56.584Z,32.80
2017-12-06T03:23:56.562Z,30.90
2017-12-06T03:24:56.543Z,32.20
2017-12-06T03:25:56.531Z,31.80
2017-12-06T03:26:56.506Z,31.90
2017-12-06T03:27:56.492Z,31.00
2017-12-06T03:28:56.462Z,31.30
2017-12-06T03:29:56.440Z,31.40
2017-12-06T03:30:56.423Z,31.20
2017-12-06T03:31:56.403Z,32.30
2017-12-06T03:32:56.380Z,31.80
2017-12-06T03:33:56.363Z,30.40
2017-12-06T03:34:56.341Z,32.70
2017-12-06T03:35:56.316Z,32.20
2017-12-06T03:36:56.311Z,31.90
2017-12-06T03:37:56.277Z,31.50
2017-12-06T03:38:56.262Z,31.00
2017-12-06T03:39:56.251Z,28.60
2017-12-06T03:40:56.214Z,31.80
2017-12-06T03:41:56.198Z,30.90
2017-12-06T03:42:56.175Z,30.10
2017-12-06T03:43:56.155Z,31.50
2017-12-06T03:44:56.136Z,31.90
2017-12-06T03:45:56.123Z,31.20
2017-12-06T03:46:56.094Z,31.20
2017-12-06T03:47:56.072Z,30.50
2017-12-06T03:48:56.051Z,31.10
2017-12-06T03:49:56.032Z,32.00
2017-12-06T03:50:56.013Z,32.10
2017-12-06T03:51:55.992Z,30.50
2017-12-06T03:52:55.973Z,30.40
2017-12-06T03:53:55.950Z,31.00
2017-12-06T03:54:55.929Z,30.30
2017-12-06T03:55:55.916Z,31.10
2017-12-06T03:56:55.947Z,30.60
2017-12-06T03:57:55.874Z,30.40
2017-12-06T03:58:55.848Z,30.20
2017-12-06T03:59:55.827Z,32.20
2017-12-06T04:00:55.818Z,32.50
2017-12-06T04:01:55.787Z,30.80
2017-12-06T04:02:55.773Z,31.40
2017-12-06T04:03:55.746Z,32.10
2017-12-06T04:04:55.723Z,30.70
2017-12-06T04:05:55.712Z,32.60
2017-12-06T04:06:55.682Z,31.10
2017-12-06T04:07:55.662Z,29.10
2017-12-06T04:08:55.641Z,30.60
2017-12-06T04:09:55.622Z,30.90
2017-12-06T04:10:55.604Z,30.10
2017-12-06T04:11:55.578Z,30.50
2017-12-06T04:12:55.561Z,30.10
2017-12-06T04:13:55.539Z,30.40
2017-12-06T04:14:55.521Z,30.70
2017-12-06T04:15:55.500Z,31.10
2017-12-06T04:16:55.481Z,30.60
2017-12-06T04:17:55.457Z,30.80
2017-12-06T04:18:55.438Z,30.60
2017-12-06T04:19:55.417Z,31.20
2017-12-06T04:20:55.398Z,30.80
2017-12-06T04:21:55.382Z,31.50
2017-12-06T04:22:55.358Z,29.70
2017-12-06T04:23:55.344Z,30.10
2017-12-06T04:24:55.316Z,30.60
2017-12-06T04:25:55.295Z,30.00
2017-12-06T04:26:55.279Z,28.50
2017-12-06T04:27:55.255Z,30.50
2017-12-06T04:28:55.240Z,29.50
2017-12-06T04:29:55.212Z,29.20
2017-12-06T04:30:55.200Z,28.70
2017-12-06T04:31:55.172Z,28.70
2017-12-06T04:32:55.151Z,29.00
2017-12-06T04:33:55.132Z,29.60
2017-12-06T04:34:55.114Z,27.70
2017-12-06T04:35:55.091Z,28.30
2017-12-06T04:36:55.072Z,28.40
2017-12-06T04:37:55.049Z,28.00
2017-12-06T04:38:55.038Z,27.90
2017-12-06T04:39:55.009Z,27.90
2017-12-06T04:40:54.991Z,29.90
2017-12-06T04:41:54.974Z,28.30
2017-12-06T04:42:54.950Z,28.40
2017-12-06T04:43:54.926Z,28.50
2017-12-06T04:44:54.907Z,27.50
2017-12-06T04:45:54.887Z,27.80
2017-12-06T04:46:54.867Z,28.40
2017-12-06T04:47:54.849Z,27.50
2017-12-06T04:48:54.827Z,27.70
2017-12-06T04:49:54.804Z,28.10
2017-12-06T04:50:54.788Z,26.80
2017-12-06T04:51:54.769Z,28.50
2017-12-06T04:52:54.741Z,27.60
2017-12-06T04:53:54.724Z,28.50
2017-12-06T04:54:54.708Z,28.30
2017-12-06T04:55:54.681Z,27.60
2017-12-06T04:56:54.672Z,29.70
2017-12-06T04:57:54.640Z,28.70
2017-12-06T04:58:54.621Z,28.60
2017-12-06T04:59:54.600Z,28.70
2017-12-06T05:00:54.635Z,28.60
2017-12-06T05:01:54.561Z,27.90
2017-12-06T05:02:54.542Z,27.80
2017-12-06T05:03:54.518Z,28.30
2017-12-06T05:04:54.501Z,28.30
2017-12-06T05:05:54.483Z,27.80
2017-12-06T05:06:54.469Z,28.00
2017-12-06T05:07:54.439Z,27.80
2017-12-06T05:08:54.418Z,29.00
2017-12-06T05:09:54.398Z,28.00
2017-12-06T05:10:54.378Z,27.80
2017-12-06T05:11:54.365Z,26.80
2017-12-06T05:12:54.335Z,27.60
2017-12-06T05:13:54.320Z,26.80
2017-12-06T05:14:54.298Z,29.70
2017-12-06T05:15:54.273Z,28.70
2017-12-06T05:16:54.255Z,29.20
2017-12-06T05:17:54.233Z,28.40
2017-12-06T05:18:54.217Z,26.90
2017-12-06T05:19:54.192Z,28.40
2017-12-06T05:20:54.173Z,28.80
2017-12-06T05:21:54.152Z,28.00
2017-12-06T05:22:54.135Z,27.20
2017-12-06T05:23:54.110Z,28.70
2017-12-06T05:24:54.090Z,28.20
2017-12-06T05:25:54.071Z,30.70
2017-12-06T05:26:54.051Z,29.60
2017-12-06T05:27:54.026Z,30.00
2017-12-06T05:28:54.011Z,27.30
2017-12-06T05:29:53.988Z,29.40
2017-12-06T05:30:53.969Z,28.60
2017-12-06T05:31:53.946Z,30.80
2017-12-06T05:32:53.926Z,29.40
2017-12-06T05:33:53.912Z,28.80
2017-12-06T05:34:53.896Z,29.90
2017-12-06T05:35:53.869Z,29.20
2017-12-06T05:36:53.847Z,30.80
2017-12-06T05:37:53.829Z,29.80
2017-12-06T05:38:53.802Z,30.00
2017-12-06T05:39:53.781Z,31.10
2017-12-06T05:40:53.762Z,30.70
2017-12-06T05:41:53.742Z,30.20
2017-12-06T05:42:53.722Z,30.80
2017-12-06T05:43:53.708Z,29.80
2017-12-06T05:44:53.681Z,31.50
2017-12-06T05:45:53.665Z,28.60
2017-12-06T05:46:53.639Z,30.50
2017-12-06T05:47:53.627Z,29.80
2017-12-06T05:48:53.600Z,30.40
2017-12-06T05:49:53.581Z,29.50
2017-12-06T05:50:53.561Z,31.90
2017-12-06T05:51:53.540Z,30.90
2017-12-06T05:52:53.520Z,31.10
2017-12-06T05:53:53.496Z,30.70
2017-12-06T05:54:53.480Z,30.70
2017-12-06T05:55:53.456Z,30.70
2017-12-06T05:56:53.440Z,29.20
2017-12-06T05:57:53.418Z,30.60
2017-12-06T05:58:53.395Z,30.20
2017-12-06T05:59:53.378Z,31.90
2017-12-06T06:00:53.362Z,30.30
2017-12-06T06:01:53.337Z,30.70
2017-12-06T06:02:53.315Z,29.00
2017-12-06T06:03:53.298Z,31.70
2017-12-06T06:04:53.272Z,31.40
2017-12-06T06:05:53.253Z,29.80
2017-12-06T06:06:53.235Z,28.20
2017-12-06T06:07:53.211Z,31.20
2017-12-06T06:08:53.191Z,30.00
2017-12-06T06:09:53.171Z,30.30
2017-12-06T06:10:53.152Z,30.60
2017-12-06T06:11:53.135Z,30.30
2017-12-06T06:12:53.111Z,31.20
2017-12-06T06:13:53.092Z,32.00
2017-12-06T06:14:53.072Z,29.70
2017-12-06T06:15:53.051Z,31.30
2017-12-06T06:16:53.030Z,29.00
2017-12-06T06:17:53.013Z,30.20
2017-12-06T06:18:52.987Z,29.50
2017-12-06T06:19:52.965Z,29.60
2017-12-06T06:20:52.949Z,29.50
2017-12-06T06:21:52.926Z,29.40
2017-12-06T06:22:52.909Z,28.60
2017-12-06T06:23:52.890Z,29.40
2017-12-06T06:24:52.863Z,30.50
2017-12-06T06:25:52.847Z,30.20
2017-12-06T06:26:52.831Z,28.10
2017-12-06T06:27:52.803Z,29.10
2017-12-06T06:28:52.783Z,31.00
2017-12-06T06:29:52.763Z,29.50
2017-12-06T06:30:52.742Z,29.10
2017-12-06T06:31:52.719Z,29.50
2017-12-06T06:32:52.699Z,29.00
2017-12-06T06:33:52.680Z,29.70
2017-12-06T06:34:52.660Z,29.30
2017-12-06T06:35:52.640Z,28.70
2017-12-06T06:36:52.626Z,28.70
2017-12-06T06:37:52.604Z,28.10
2017-12-06T06:38:52.576Z,30.60
2017-12-06T06:39:52.561Z,30.20
2017-12-06T06:40:52.537Z,29.60
2017-12-06T06:41:52.522Z,29.30
2017-12-06T06:42:52.506Z,29.60
2017-12-06T06:43:52.479Z,27.60
2017-12-06T06:44:52.459Z,28.10
2017-12-06T06:45:52.439Z,28.80
2017-12-06T06:46:52.419Z,27.30
2017-12-06T06:47:52.391Z,29.10
2017-12-06T06:48:52.371Z,29.50
2017-12-06T06:49:52.355Z,28.30
2017-12-06T06:50:52.347Z,30.80
2017-12-06T06:51:52.319Z,28.50
2017-12-06T06:52:52.293Z,26.10
2017-12-06T06:53:52.276Z,27.60
2017-12-06T06:54:52.252Z,28.80
2017-12-06T06:55:52.229Z,25.90
2017-12-06T06:56:52.217Z,27.60
2017-12-06T06:57:52.192Z,27.80
2017-12-06T06:58:52.175Z,28.70
2017-12-06T06:59:52.150Z,27.90
2017-12-06T07:00:52.137Z,27.30
2017-12-06T07:01:52.109Z,28.20
2017-12-06T07:02:52.095Z,26.30
2017-12-06T07:03:52.070Z,28.20
2017-12-06T07:04:52.056Z,28.60
2017-12-06T07:05:52.028Z,28.20
2017-12-06T07:06:52.027Z,27.50
2017-12-06T07:07:51.986Z,26.80
2017-12-06T07:08:51.970Z,27.40
2017-12-06T07:09:51.954Z,27.80
2017-12-06T07:10:51.929Z,27.70
2017-12-06T07:11:51.904Z,27.10
2017-12-06T07:12:51.886Z,26.80
2017-12-06T07:13:51.867Z,24.90
2017-12-06T07:14:51.846Z,25.80
2017-12-06T07:15:51.832Z,25.80
2017-12-06T07:16:51.802Z,26.10
2017-12-06T07:17:51.781Z,25.70
2017-12-06T07:18:51.763Z,26.60
2017-12-06T07:19:51.741Z,26.70
2017-12-06T07:20:51.722Z,25.40
2017-12-06T07:21:51.702Z,24.90
2017-12-06T07:22:51.682Z,26.30
2017-12-06T07:23:51.659Z,25.90
2017-12-06T07:24:51.640Z,24.60
2017-12-06T07:25:51.618Z,26.10
2017-12-06T07:26:51.601Z,24.70
2017-12-06T07:27:51.580Z,25.30
2017-12-06T07:28:51.556Z,25.20
2017-12-06T07:29:51.541Z,25.10
2017-12-06T07:30:51.522Z,26.30
2017-12-06T07:31:51.500Z,24.40
2017-12-06T07:32:51.477Z,25.30
2017-12-06T07:33:51.463Z,24.90
2017-12-06T07:34:51.437Z,23.90
2017-12-06T07:35:51.421Z,24.50
2017-12-06T07:36:51.396Z,26.00
2017-12-06T07:37:51.373Z,24.70
2017-12-06T07:38:51.357Z,25.20
2017-12-06T07:39:51.333Z,24.30
2017-12-06T07:40:51.318Z,24.00
2017-12-06T07:41:51.292Z,25.20
2017-12-06T07:42:51.278Z,24.20
2017-12-06T07:43:51.253Z,23.50
2017-12-06T07:44:51.230Z,24.80
2017-12-06T07:45:51.214Z,24.00
2017-12-06T07:46:51.195Z,23.40
2017-12-06T07:47:51.180Z,23.70
2017-12-06T07:48:51.160Z,23.60
2017-12-06T07:49:51.133Z,23.80
2017-12-06T07:50:51.113Z,23.50
2017-12-06T07:51:51.096Z,23.30
2017-12-06T07:52:51.073Z,22.70
2017-12-06T07:53:51.051Z,23.00
2017-12-06T07:54:51.032Z,23.30
2017-12-06T07:55:51.009Z,23.50
2017-12-06T07:56:50.991Z,23.40
2017-12-06T07:57:50.979Z,23.70
2017-12-06T07:58:50.953Z,24.60
2017-12-06T07:59:50.932Z,24.10
2017-12-06T08:00:50.907Z,22.80
2017-12-06T08:01:50.888Z,23.30
2017-12-06T08:02:50.867Z,24.60
2017-12-06T08:03:50.851Z,22.50
2017-12-06T08:04:50.830Z,22.50
2017-12-06T08:05:50.813Z,23.00
2017-12-06T08:06:50.787Z,22.30
2017-12-06T08:07:50.763Z,22.50
2017-12-06T08:08:50.747Z,22.50
2017-12-06T08:09:50.727Z,22.20
2017-12-06T08:10:50.703Z,23.70
2017-12-06T08:11:50.683Z,22.30
2017-12-06T08:12:50.662Z,21.80
2017-12-06T08:13:50.642Z,22.00
2017-12-06T08:14:50.629Z,22.40
2017-12-06T08:15:50.603Z,22.10
2017-12-06T08:16:50.582Z,21.80
2017-12-06T08:17:50.565Z,22.30
2017-12-06T08:18:50.542Z,21.90
2017-12-06T08:19:50.523Z,21.70
2017-12-06T08:20:50.503Z,22.20
2017-12-06T08:21:50.481Z,21.10
2017-12-06T08:22:50.462Z,23.20
2017-12-06T08:23:50.444Z,20.70
2017-12-06T08:24:50.421Z,20.10
2017-12-06T08:25:50.397Z,21.50
2017-12-06T08:26:50.389Z,21.50
2017-12-06T08:27:50.359Z,20.10
2017-12-06T08:28:50.340Z,21.70
2017-12-06T08:29:50.320Z,20.10
2017-12-06T08:30:50.303Z,19.40
2017-12-06T08:31:50.285Z,19.00
2017-12-06T08:32:50.259Z,19.80
2017-12-06T08:33:50.235Z,20.30
2017-12-06T08:34:50.221Z,20.60
2017-12-06T08:35:50.201Z,20.30
2017-12-06T08:36:50.176Z,20.80
2017-12-06T08:37:50.160Z,22.10
2017-12-06T08:38:50.142Z,21.10
2017-12-06T08:39:50.115Z,20.00
2017-12-06T08:40:50.093Z,20.10
2017-12-06T08:41:50.075Z,20.00
2017-12-06T08:42:50.054Z,18.90
2017-12-06T08:43:50.033Z,19.30
2017-12-06T08:44:50.019Z,19.00
2017-12-06T08:45:49.995Z,18.60
2017-12-06T08:46:49.972Z,20.50
2017-12-06T08:47:49.955Z,19.20
2017-12-06T08:48:49.937Z,19.70
2017-12-06T08:49:49.912Z,19.60
2017-12-06T08:50:49.895Z,17.80
2017-12-06T08:51:49.898Z,19.60
2017-12-06T08:52:49.911Z,18.90
2017-12-06T08:53:49.832Z,18.60
2017-12-06T08:54:49.815Z,17.70
2017-12-06T08:55:49.790Z,18.80
2017-12-06T08:56:49.773Z,20.10
2017-12-06T08:57:49.752Z,18.90
2017-12-06T08:58:49.741Z,18.90
2017-12-06T08:59:49.710Z,18.70
2017-12-06T09:00:49.690Z,18.80
2017-12-06T09:01:49.675Z,19.00
2017-12-06T09:02:49.655Z,19.20
2017-12-06T09:03:49.630Z,19.00
2017-12-06T09:04:49.610Z,19.00
2017-12-06T09:05:49.591Z,19.40
2017-12-06T09:06:49.567Z,17.80
2017-12-06T09:07:49.549Z,18.70
2017-12-06T09:08:49.532Z,19.60
2017-12-06T09:09:49.511Z,18.60
2017-12-06T09:10:49.488Z,17.80
2017-12-06T09:11:49.465Z,20.10
2017-12-06T09:12:49.449Z,18.30
2017-12-06T09:13:49.428Z,20.00
2017-12-06T09:14:49.409Z,18.20
2017-12-06T09:15:49.387Z,18.60
2017-12-06T09:16:49.367Z,19.10
2017-12-06T09:17:49.346Z,18.40
2017-12-06T09:18:49.340Z,18.60
2017-12-06T09:19:49.305Z,18.90
2017-12-06T09:20:49.283Z,17.90
2017-12-06T09:21:49.268Z,18.60
2017-12-06T09:22:49.251Z,19.60
2017-12-06T09:23:49.231Z,17.90
2017-12-06T09:24:49.203Z,18.50
2017-12-06T09:25:49.188Z,19.30
2017-12-06T09:26:49.168Z,19.10
2017-12-06T09:27:49.145Z,18.90
2017-12-06T09:28:49.124Z,19.10
2017-12-06T09:29:49.101Z,18.60
2017-12-06T09:30:49.082Z,20.40
2017-12-06T09:31:49.061Z,19.00
2017-12-06T09:32:49.039Z,19.40
2017-12-06T09:33:49.021Z,17.90
2017-12-06T09:34:49.001Z,18.30
2017-12-06T09:35:48.981Z,18.40
2017-12-06T09:36:48.965Z,17.70
2017-12-06T09:37:48.943Z,18.10
2017-12-06T09:38:48.923Z,18.70
2017-12-06T09:39:48.902Z,18.40
2017-12-06T09:40:48.894Z,17.00
2017-12-06T09:41:48.864Z,17.30
2017-12-06T09:42:48.842Z,16.40
2017-12-06T09:43:48.822Z,17.10
2017-12-06T09:44:48.799Z,18.00
2017-12-06T09:45:48.782Z,16.60
2017-12-06T09:46:48.760Z,17.20
2017-12-06T09:47:48.742Z,17.30
2017-12-06T09:48:48.722Z,17.60
2017-12-06T09:49:48.703Z,16.60
2017-12-06T09:50:48.681Z,16.90
2017-12-06T09:51:48.661Z,15.80
2017-12-06T09:52:48.641Z,16.40
2017-12-06T09:53:48.618Z,17.20
2017-12-06T09:54:48.605Z,15.40
2017-12-06T09:55:48.576Z,16.70
2017-12-06T09:56:48.562Z,16.10
2017-12-06T09:57:48.542Z,16.40
2017-12-06T09:58:48.521Z,15.50
2017-12-06T09:59:48.508Z,16.20
2017-12-06T10:00:48.481Z,16.30
2017-12-06T10:01:48.461Z,15.60
2017-12-06T10:02:48.442Z,16.50
2017-12-06T10:03:48.416Z,17.00
2017-12-06T10:04:48.392Z,15.60
2017-12-06T10:05:48.380Z,16.60
2017-12-06T10:06:48.354Z,15.80
2017-12-06T10:07:48.336Z,16.10
2017-12-06T10:08:48.316Z,15.70
2017-12-06T10:09:48.296Z,15.70
2017-12-06T10:10:48.275Z,16.50
2017-12-06T10:11:48.266Z,16.40
2017-12-06T10:12:48.233Z,16.80
2017-12-06T10:13:48.212Z,15.20
2017-12-06T10:14:48.193Z,15.20
2017-12-06T10:15:48.173Z,16.30
2017-12-06T10:16:48.153Z,16.40
2017-12-06T10:17:48.132Z,15.90
2017-12-06T10:18:48.112Z,16.00
2017-12-06T10:19:48.093Z,15.90
2017-12-06T10:20:48.073Z,15.10
2017-12-06T10:21:48.053Z,15.20
2017-12-06T10:22:48.032Z,13.90
2017-12-06T10:23:48.014Z,14.80
2017-12-06T10:24:47.991Z,14.30
2017-12-06T10:25:47.972Z,14.80
2017-12-06T10:26:47.951Z,14.40
2017-12-06T10:27:47.931Z,14.30
2017-12-06T10:28:47.912Z,14.70
2017-12-06T10:29:47.892Z,14.10
2017-12-06T10:30:47.872Z,13.60
2017-12-06T10:31:47.853Z,13.80
2017-12-06T10:32:47.831Z,13.50
2017-12-06T10:33:47.814Z,12.80
2017-12-06T10:34:47.795Z,13.70
2017-12-06T10:35:47.770Z,13.30
2017-12-06T10:36:47.756Z,13.70
2017-12-06T10:37:47.729Z,14.00
2017-12-06T10:38:47.712Z,12.70
2017-12-06T10:39:47.700Z,13.40
2017-12-06T10:40:47.673Z,13.10
2017-12-06T10:41:47.651Z,13.50
2017-12-06T10:42:47.633Z,12.90
2017-12-06T10:43:47.613Z,12.80
2017-12-06T10:44:47.593Z,12.70
2017-12-06T10:45:47.571Z,13.70
2017-12-06T10:46:47.553Z,13.80
2017-12-06T10:47:47.534Z,11.70
2017-12-06T10:48:47.515Z,12.30
2017-12-06T10:49:47.494Z,13.00
2017-12-06T10:50:47.470Z,11.80
2017-12-06T10:51:47.453Z,11.40
2017-12-06T10:52:47.432Z,12.00
2017-12-06T10:53:47.412Z,13.30
2017-12-06T10:54:47.391Z,12.30
2017-12-06T10:55:47.374Z,12.90
2017-12-06T10:56:47.354Z,12.90
2017-12-06T10:57:47.331Z,14.50
2017-12-06T10:58:47.309Z,12.90
2017-12-06T10:59:47.295Z,13.20
2017-12-06T11:00:47.272Z,13.00
2017-12-06T11:01:47.257Z,12.40
2017-12-06T11:02:47.231Z,13.50
2017-12-06T11:03:47.209Z,13.60
2017-12-06T11:04:47.192Z,13.70
2017-12-06T11:05:47.173Z,12.90
2017-12-06T11:06:47.154Z,14.70
2017-12-06T11:07:47.136Z,13.10
2017-12-06T11:08:47.114Z,13.30
2017-12-06T11:09:47.089Z,14.00
2017-12-06T11:10:47.073Z,13.90
2017-12-06T11:11:47.053Z,13.20
2017-12-06T11:12:47.033Z,14.50
2017-12-06T11:13:47.010Z,13.60
2017-12-06T11:14:46.993Z,13.70
2017-12-06T11:15:46.969Z,13.90
2017-12-06T11:16:46.951Z,15.00
2017-12-06T11:17:46.932Z,14.50
2017-12-06T11:18:46.913Z,15.00
2017-12-06T11:19:46.892Z,12.80
2017-12-06T11:20:46.888Z,14.20
2017-12-06T11:21:46.856Z,13.50
2017-12-06T11:22:46.832Z,14.30
2017-12-06T11:23:46.811Z,13.90
2017-12-06T11:24:46.789Z,14.00
2017-12-06T11:25:46.772Z,14.30
2017-12-06T11:26:46.754Z,15.10
2017-12-06T11:27:46.732Z,14.90
2017-12-06T11:28:46.713Z,14.70
2017-12-06T11:29:46.693Z,14.60
2017-12-06T11:30:46.673Z,14.30
2017-12-06T11:31:46.652Z,14.50
2017-12-06T11:32:46.642Z,14.60
2017-12-06T11:33:46.621Z,14.60
2017-12-06T11:34:46.593Z,13.80
2017-12-06T11:35:46.574Z,13.90
2017-12-06T11:36:46.553Z,13.80
2017-12-06T11:37:46.533Z,13.30
2017-12-06T11:38:46.512Z,14.50
2017-12-06T11:39:46.498Z,14.50
2017-12-06T11:40:46.470Z,14.40
2017-12-06T11:41:46.453Z,14.30
2017-12-06T11:42:46.430Z,14.00
2017-12-06T11:43:46.412Z,14.70
2017-12-06T11:44:46.390Z,13.90
2017-12-06T11:45:46.373Z,15.10
2017-12-06T11:46:46.363Z,13.90
2017-12-06T11:47:46.332Z,14.10
2017-12-06T11:48:46.313Z,14.30
2017-12-06T11:49:46.305Z,13.80
2017-12-06T11:50:46.272Z,14.80
2017-12-06T11:51:46.251Z,14.40
2017-12-06T11:52:46.234Z,14.60
2017-12-06T11:53:46.221Z,14.50
2017-12-06T11:54:46.194Z,14.20
2017-12-06T11:55:46.174Z,15.10
2017-12-06T11:56:46.152Z,13.70
2017-12-06T11:57:46.133Z,15.00
2017-12-06T11:58:46.112Z,14.50
2017-12-06T11:59:46.093Z,14.70
2017-12-06T12:00:46.074Z,14.10
2017-12-06T12:01:46.059Z,14.40
2017-12-06T12:02:46.036Z,13.40
2017-12-06T12:03:46.018Z,14.20
2017-12-06T12:04:45.992Z,14.30
2017-12-06T12:05:45.970Z,14.50
2017-12-06T12:06:45.956Z,14.60
2017-12-06T12:07:45.935Z,14.50
2017-12-06T12:08:45.913Z,14.90
2017-12-06T12:09:45.900Z,14.50
2017-12-06T12:10:45.874Z,13.90
2017-12-06T12:11:45.853Z,14.40
2017-12-06T12:12:45.836Z,14.00
2017-12-06T12:13:45.825Z,14.60
2017-12-06T12:14:45.796Z,13.80
2017-12-06T12:15:45.781Z,13.70
2017-12-06T12:16:45.753Z,14.10
2017-12-06T12:17:45.733Z,13.70
2017-12-06T12:18:45.717Z,14.80
2017-12-06T12:19:45.703Z,15.60
2017-12-06T12:20:45.678Z,14.80
2017-12-06T12:21:45.654Z,14.50
2017-12-06T12:22:45.640Z,14.00
2017-12-06T12:23:45.614Z,14.50
2017-12-06T12:24:45.594Z,14.40
2017-12-06T12:25:45.577Z,14.50
2017-12-06T12:26:45.559Z,14.50
2017-12-06T12:27:45.534Z,15.10
2017-12-06T12:28:45.512Z,14.80
2017-12-06T12:29:45.493Z,15.20
2017-12-06T12:30:45.479Z,13.90
2017-12-06T12:31:45.459Z,14.90
2017-12-06T12:32:45.435Z,13.90
2017-12-06T12:33:45.413Z,13.10
2017-12-06T12:34:45.394Z,14.30
2017-12-06T12:35:45.374Z,14.30
2017-12-06T12:36:45.352Z,14.10
2017-12-06T12:37:45.333Z,13.90
2017-12-06T12:38:45.314Z,13.50
2017-12-06T12:39:45.363Z,15.00
2017-12-06T12:40:45.274Z,15.30
2017-12-06T12:41:45.252Z,15.10
2017-12-06T12:42:45.234Z,13.80
2017-12-06T12:43:45.225Z,14.20
2017-12-06T12:44:45.202Z,14.30
2017-12-06T12:45:45.173Z,13.60
2017-12-06T12:46:45.164Z,13.20
2017-12-06T12:47:45.134Z,14.50
2017-12-06T12:48:45.117Z,14.20
2017-12-06T12:49:45.094Z,14.00
2017-12-06T12:50:45.079Z,14.20
2017-12-06T12:51:45.056Z,13.90